Time,TemperatureF,DewpointF,PressureIn,WindDirection,WindDirectionDegrees,WindSpeedMPH,WindSpeedGustMPH,Humidity,HourlyPrecipIn,Conditions,Clouds,dailyrainin,SoftwareType,DateUTC
2013-06-26 00:03:00,75.5,73.0,29.76,West,262,0.0,-999.0,91,-99.99,,,0.13,weatherlink.com 1.10,2013-06-26 05:03:00,
2013-06-26 00:18:00,75.2,73.0,29.75,West,262,0.0,-999.0,91,-99.99,,,0.13,weatherlink.com 1.10,2013-06-26 05:18:00,
2013-06-26 00:33:00,74.9,73.0,29.75,WNW,294,0.0,-999.0,92,-99.99,,,0.13,weatherlink.com 1.10,2013-06-26 05:33:00,
2013-06-26 00:48:00,74.6,73.0,29.74,West,266,0.0,-999.0,93,-99.99,,,0.13,weatherlink.com 1.10,2013-06-26 05:48:00,
2013-06-26 01:03:00,74.3,73.0,29.74,West,266,0.0,-999.0,94,-99.99,,,0.13,weatherlink.com 1.10,2013-06-26 06:03:00,
2013-06-26 01:18:00,74.2,72.0,29.75,WSW,258,0.0,-999.0,94,-99.99,,,0.13,weatherlink.com 1.10,2013-06-26 06:18:00,
2013-06-26 01:33:00,74.0,72.0,29.75,WSW,258,0.0,-999.0,94,-99.99,,,0.13,weatherlink.com 1.10,2013-06-26 06:33:00,
2013-06-26 01:48:00,73.9,72.0,29.74,WSW,258,0.0,-999.0,95,-99.99,,,0.13,weatherlink.com 1.10,2013-06-26 06:48:00,
2013-06-26 02:03:00,73.8,72.0,29.73,WSW,258,0.0,-999.0,95,-99.99,,,0.13,weatherlink.com 1.10,2013-06-26 07:03:00,
2013-06-26 02:18:00,73.7,72.0,29.74,WSW,258,0.0,-999.0,95,-99.99,,,0.13,weatherlink.com 1.10,2013-06-26 07:18:00,
2013-06-26 02:33:00,73.5,72.0,29.73,WSW,258,0.0,-999.0,95,-99.99,,,0.13,weatherlink.com 1.10,2013-06-26 07:33:00,
2013-06-26 02:48:00,73.4,72.0,29.72,North,355,0.0,-999.0,95,-99.99,,,0.13,weatherlink.com 1.10,2013-06-26 07:48:00,
2013-06-26 03:03:00,73.3,72.0,29.71,WNW,287,0.0,-999.0,95,-99.99,,,0.13,weatherlink.com 1.10,2013-06-26 08:03:00,
2013-06-26 03:18:00,73.3,72.0,29.70,WNW,289,0.0,-999.0,95,-99.99,,,0.13,weatherlink.com 1.10,2013-06-26 08:18:00,
2013-06-26 03:33:00,73.2,72.0,29.70,WNW,300,0.0,-999.0,96,-99.99,,,0.13,weatherlink.com 1.10,2013-06-26 08:33:00,
2013-06-26 03:48:00,73.2,72.0,29.70,NW,311,0.0,-999.0,96,-99.99,,,0.13,weatherlink.com 1.10,2013-06-26 08:48:00,
2013-06-26 04:03:00,73.2,72.0,29.70,NNW,327,0.0,-999.0,96,-99.99,,,0.13,weatherlink.com 1.10,2013-06-26 09:03:00,
2013-06-26 04:18:00,71.9,67.0,29.68,WNW,292,4.0,-999.0,85,-99.99,,,0.15,weatherlink.com 1.10,2013-06-26 09:18:00,
2013-06-26 04:33:00,70.0,67.0,29.72,SSE,151,1.0,-999.0,90,-99.99,,,0.18,weatherlink.com 1.10,2013-06-26 09:33:00,
2013-06-26 04:48:00,68.6,65.0,29.72,NNW,332,1.0,-999.0,89,-99.99,,,0.20,weatherlink.com 1.10,2013-06-26 09:48:00,
2013-06-26 05:03:00,67.1,65.0,29.70,South,184,1.0,-999.0,93,-99.99,,,0.22,weatherlink.com 1.10,2013-06-26 10:03:00,
2013-06-26 05:18:00,66.4,65.0,29.72,South,186,1.0,-999.0,94,-99.99,,,0.32,weatherlink.com 1.10,2013-06-26 10:18:00,
2013-06-26 05:33:00,65.4,64.0,29.76,NW,305,0.0,-999.0,95,-99.99,,,0.56,weatherlink.com 1.10,2013-06-26 10:33:00,
2013-06-26 05:48:00,65.1,64.0,29.75,NNW,332,0.0,-999.0,96,-99.99,,,0.92,weatherlink.com 1.10,2013-06-26 10:48:00,
2013-06-26 06:03:00,65.2,64.0,29.77,NE,53,1.0,-999.0,97,-99.99,,,1.20,weatherlink.com 1.10,2013-06-26 11:03:00,
2013-06-26 06:18:00,65.6,65.0,29.77,SSW,193,0.0,-999.0,97,-99.99,,,1.34,weatherlink.com 1.10,2013-06-26 11:18:00,
2013-06-26 06:33:00,65.8,65.0,29.75,SW,230,0.0,-999.0,98,-99.99,,,1.47,weatherlink.com 1.10,2013-06-26 11:33:00,
2013-06-26 06:48:00,66.4,66.0,29.73,WSW,243,0.0,-999.0,98,-99.99,,,1.52,weatherlink.com 1.10,2013-06-26 11:48:00,
2013-06-26 07:03:00,66.9,66.0,29.75,North,2,0.0,-999.0,98,-99.99,,,1.53,weatherlink.com 1.10,2013-06-26 12:03:00,
2013-06-26 07:18:00,67.3,67.0,29.74,North,3,0.0,-999.0,98,-99.99,,,1.55,weatherlink.com 1.10,2013-06-26 12:18:00,
2013-06-26 07:33:00,67.1,67.0,29.75,West,279,0.0,-999.0,98,-99.99,,,0.01,weatherlink.com 1.10,2013-06-26 12:33:00,
2013-06-26 07:48:00,67.2,67.0,29.77,SW,235,0.0,-999.0,98,-99.99,,,0.05,weatherlink.com 1.10,2013-06-26 12:48:00,
2013-06-26 08:03:00,67.7,67.0,29.77,SW,235,0.0,-999.0,98,-99.99,,,0.10,weatherlink.com 1.10,2013-06-26 13:03:00,
2013-06-26 08:18:00,67.9,67.0,29.75,SW,217,1.0,-999.0,98,-99.99,,,0.14,weatherlink.com 1.10,2013-06-26 13:18:00,
2013-06-26 08:34:00,68.0,68.0,29.69,WSW,251,1.0,-999.0,98,-99.99,,,0.16,weatherlink.com 1.10,2013-06-26 13:34:00,
2013-06-26 08:49:00,68.3,68.0,29.70,SSW,199,0.0,-999.0,98,-99.99,,,0.16,weatherlink.com 1.10,2013-06-26 13:49:00,
2013-06-26 09:04:00,68.6,68.0,29.70,NNE,19,0.0,-999.0,99,-99.99,,,0.16,weatherlink.com 1.10,2013-06-26 14:04:00,
2013-06-26 09:19:00,69.3,69.0,29.71,WNW,282,0.0,-999.0,99,-99.99,,,0.16,weatherlink.com 1.10,2013-06-26 14:19:00,
2013-06-26 09:34:00,70.1,70.0,29.70,WSW,239,0.0,-999.0,98,-99.99,,,0.16,weatherlink.com 1.10,2013-06-26 14:34:00,
2013-06-26 09:49:00,70.2,69.0,29.69,NW,319,0.0,-999.0,97,-99.99,,,0.16,weatherlink.com 1.10,2013-06-26 14:49:00,
2013-06-26 10:04:00,70.1,69.0,29.70,North,7,0.0,-999.0,96,-99.99,,,0.16,weatherlink.com 1.10,2013-06-26 15:04:00,
2013-06-26 10:19:00,70.3,69.0,29.71,WSW,249,0.0,-999.0,96,-99.99,,,0.16,weatherlink.com 1.10,2013-06-26 15:19:00,
2013-06-26 10:34:00,70.8,69.0,29.72,NW,326,0.0,-999.0,94,-99.99,,,0.16,weatherlink.com 1.10,2013-06-26 15:34:00,
2013-06-26 10:49:00,71.4,69.0,29.73,West,266,0.0,-999.0,93,-99.99,,,0.16,weatherlink.com 1.10,2013-06-26 15:49:00,
2013-06-26 11:04:00,72.0,69.0,29.73,NW,326,0.0,-999.0,91,-99.99,,,0.16,weatherlink.com 1.10,2013-06-26 16:04:00,
2013-06-26 11:19:00,72.8,70.0,29.73,SSW,205,0.0,-999.0,91,-99.99,,,0.16,weatherlink.com 1.10,2013-06-26 16:19:00,
2013-06-26 11:34:00,73.9,71.0,29.73,NW,313,0.0,-999.0,89,-99.99,,,0.16,weatherlink.com 1.10,2013-06-26 16:34:00,
2013-06-26 11:49:00,75.2,72.0,29.73,North,10,0.0,-999.0,88,-99.99,,,0.16,weatherlink.com 1.10,2013-06-26 16:49:00,
2013-06-26 12:04:00,76.1,71.0,29.73,SW,218,1.0,-999.0,85,-99.99,,,0.16,weatherlink.com 1.10,2013-06-26 17:04:00,
2013-06-26 12:19:00,76.8,72.0,29.73,NW,321,2.0,-999.0,84,-99.99,,,0.16,weatherlink.com 1.10,2013-06-26 17:19:00,
2013-06-26 12:34:00,76.5,71.0,29.73,NNW,327,0.0,-999.0,82,-99.99,,,0.16,weatherlink.com 1.10,2013-06-26 17:34:00,
2013-06-26 12:49:00,76.8,71.0,29.74,NW,315,0.0,-999.0,82,-99.99,,,0.16,weatherlink.com 1.10,2013-06-26 17:49:00,
2013-06-26 13:04:00,78.0,69.0,29.74,NNW,341,0.0,-999.0,73,-99.99,,,0.16,weatherlink.com 1.10,2013-06-26 18:04:00,
2013-06-26 13:19:00,78.4,70.0,29.74,South,189,0.0,-999.0,74,-99.99,,,0.16,weatherlink.com 1.10,2013-06-26 18:19:00,
2013-06-26 13:34:00,79.1,68.0,29.74,North,351,0.0,-999.0,69,-99.99,,,0.16,weatherlink.com 1.10,2013-06-26 18:34:00,
2013-06-26 13:49:00,80.4,69.0,29.74,WNW,297,1.0,-999.0,69,-99.99,,,0.16,weatherlink.com 1.10,2013-06-26 18:49:00,
2013-06-26 14:04:00,81.0,69.0,29.73,ENE,76,1.0,-999.0,67,-99.99,,,0.16,weatherlink.com 1.10,2013-06-26 19:04:00,
2013-06-26 14:19:00,81.5,70.0,29.73,NE,41,0.0,-999.0,69,-99.99,,,0.16,weatherlink.com 1.10,2013-06-26 19:19:00,
2013-06-26 14:34:00,82.3,70.0,29.73,NNW,332,1.0,-999.0,67,-99.99,,,0.16,weatherlink.com 1.10,2013-06-26 19:34:00,
2013-06-26 14:50:00,82.7,70.0,29.72,NW,314,1.0,-999.0,65,-99.99,,,0.16,weatherlink.com 1.10,2013-06-26 19:50:00,
2013-06-26 15:05:00,83.6,71.0,29.72,SSE,147,1.0,-999.0,66,-99.99,,,0.16,weatherlink.com 1.10,2013-06-26 20:05:00,
2013-06-26 15:20:00,84.1,71.0,29.73,SSE,156,2.0,-999.0,64,-99.99,,,0.16,weatherlink.com 1.10,2013-06-26 20:20:00,
2013-06-26 15:35:00,84.0,70.0,29.73,NE,38,0.0,-999.0,63,-99.99,,,0.16,weatherlink.com 1.10,2013-06-26 20:35:00,
2013-06-26 15:50:00,84.4,70.0,29.72,SW,235,0.0,-999.0,63,-99.99,,,0.16,weatherlink.com 1.10,2013-06-26 20:50:00,
2013-06-26 16:05:00,84.6,71.0,29.72,NNW,342,0.0,-999.0,63,-99.99,,,0.16,weatherlink.com 1.10,2013-06-26 21:05:00,
2013-06-26 16:20:00,84.7,70.0,29.72,WNW,293,0.0,-999.0,62,-99.99,,,0.16,weatherlink.com 1.10,2013-06-26 21:20:00,
2013-06-26 16:35:00,85.4,71.0,29.72,WNW,288,0.0,-999.0,62,-99.99,,,0.16,weatherlink.com 1.10,2013-06-26 21:35:00,
2013-06-26 16:50:00,85.0,70.0,29.72,WNW,289,0.0,-999.0,61,-99.99,,,0.16,weatherlink.com 1.10,2013-06-26 21:50:00,
2013-06-26 17:05:00,85.7,70.0,29.71,ESE,109,0.0,-999.0,59,-99.99,,,0.16,weatherlink.com 1.10,2013-06-26 22:05:00,
2013-06-26 17:20:00,85.4,70.0,29.71,NW,310,0.0,-999.0,60,-99.99,,,0.16,weatherlink.com 1.10,2013-06-26 22:20:00,
2013-06-26 17:35:00,85.2,72.0,29.70,ESE,110,0.0,-999.0,64,-99.99,,,0.16,weatherlink.com 1.10,2013-06-26 22:35:00,
2013-06-26 17:50:00,85.3,72.0,29.68,NE,55,0.0,-999.0,64,-99.99,,,0.16,weatherlink.com 1.10,2013-06-26 22:50:00,
2013-06-26 18:05:00,85.6,72.0,29.66,ENE,64,0.0,-999.0,63,-99.99,,,0.16,weatherlink.com 1.10,2013-06-26 23:05:00,
2013-06-26 18:20:00,85.5,69.0,29.69,ENE,64,0.0,-999.0,59,-99.99,,,0.16,weatherlink.com 1.10,2013-06-26 23:20:00,
2013-06-26 18:35:00,84.9,69.0,29.70,ENE,64,0.0,-999.0,60,-99.99,,,0.16,weatherlink.com 1.10,2013-06-26 23:35:00,
2013-06-26 18:50:00,84.3,70.0,29.70,North,11,0.0,-999.0,63,-99.99,,,0.16,weatherlink.com 1.10,2013-06-26 23:50:00,
2013-06-26 19:05:00,83.5,70.0,29.70,NE,41,0.0,-999.0,63,-99.99,,,0.16,weatherlink.com 1.10,2013-06-27 00:05:00,
2013-06-26 19:20:00,82.6,70.0,29.71,ENE,72,0.0,-999.0,66,-99.99,,,0.16,weatherlink.com 1.10,2013-06-27 00:20:00,
2013-06-26 19:35:00,82.0,70.0,29.71,ENE,72,0.0,-999.0,68,-99.99,,,0.16,weatherlink.com 1.10,2013-06-27 00:35:00,
2013-06-26 19:50:00,80.9,71.0,29.70,ENE,72,0.0,-999.0,71,-99.99,,,0.16,weatherlink.com 1.10,2013-06-27 00:50:00,
2013-06-26 20:05:00,80.2,70.0,29.69,ENE,72,0.0,-999.0,72,-99.99,,,0.16,weatherlink.com 1.10,2013-06-27 01:05:00,
2013-06-26 20:20:00,79.4,71.0,29.69,ENE,72,0.0,-999.0,75,-99.99,,,0.16,weatherlink.com 1.10,2013-06-27 01:20:00,
2013-06-26 20:35:00,78.4,71.0,29.69,ENE,72,0.0,-999.0,77,-99.99,,,0.16,weatherlink.com 1.10,2013-06-27 01:35:00,
2013-06-26 20:50:00,77.8,70.0,29.70,ENE,72,0.0,-999.0,78,-99.99,,,0.16,weatherlink.com 1.10,2013-06-27 01:50:00,
2013-06-26 21:05:00,77.3,71.0,29.71,ENE,72,0.0,-999.0,80,-99.99,,,0.16,weatherlink.com 1.10,2013-06-27 02:05:00,
2013-06-26 21:20:00,76.8,71.0,29.72,ENE,72,0.0,-999.0,83,-99.99,,,0.16,weatherlink.com 1.10,2013-06-27 02:20:00,
2013-06-26 21:35:00,76.4,71.0,29.72,ENE,72,0.0,-999.0,84,-99.99,,,0.16,weatherlink.com 1.10,2013-06-27 02:35:00,
2013-06-26 21:50:00,76.2,71.0,29.73,ENE,72,0.0,-999.0,85,-99.99,,,0.16,weatherlink.com 1.10,2013-06-27 02:50:00,
2013-06-26 22:05:00,76.0,72.0,29.73,ENE,72,0.0,-999.0,86,-99.99,,,0.16,weatherlink.com 1.10,2013-06-27 03:05:00,
2013-06-26 22:20:00,75.9,71.0,29.73,ENE,72,0.0,-999.0,85,-99.99,,,0.16,weatherlink.com 1.10,2013-06-27 03:20:00,
2013-06-26 22:35:00,75.9,71.0,29.74,ENE,72,0.0,-999.0,84,-99.99,,,0.16,weatherlink.com 1.10,2013-06-27 03:35:00,
2013-06-26 22:50:00,75.8,71.0,29.74,ENE,72,0.0,-999.0,84,-99.99,,,0.16,weatherlink.com 1.10,2013-06-27 03:50:00,
2013-06-26 23:05:00,75.5,71.0,29.73,ENE,72,0.0,-999.0,85,-99.99,,,0.16,weatherlink.com 1.10,2013-06-27 04:05:00,
2013-06-26 23:20:00,75.0,71.0,29.73,ENE,72,0.0,-999.0,87,-99.99,,,0.16,weatherlink.com 1.10,2013-06-27 04:20:00,
2013-06-26 23:35:00,74.8,71.0,29.73,ENE,72,0.0,-999.0,88,-99.99,,,0.16,weatherlink.com 1.10,2013-06-27 04:35:00,
2013-06-26 23:50:00,74.7,71.0,29.73,ENE,72,0.0,-999.0,88,-99.99,,,0.16,weatherlink.com 1.10,2013-06-27 04:50:00,